Terminal Aerodrome Forecast
Issued by NWS

Home | Current Version | Previous Version | Text Only | Print | Product List | Glossary On
Versions: 1 2 3 4 5 6 7 8 9 10 11 12 13 14 15 16
990
FTUS42 KGSP 271736
TAFAND
TAF
KAND 271736Z 2718/2818 23011KT P6SM VCTS BKN045CB
     FM280000 21005KT P6SM VCSH BKN035
     FM280900 19005KT 5SM BR OVC007
     FM281300 23006KT P6SM BKN007
     FM281600 26007KT P6SM BKN025=

USA.gov is the U.S. government's official web portal to all federal, state and local government web resources and services.